Pagrindinis puslapis
METAR-TAF:

METAR-TAF

Oro uostai :

Scammon Bay, Aliaska, Jungtinės Amerikos Valstijos

platuma: 61-50-43N, ilguma: 165-34-17W, Aukštis: 4 m

Dabartinis oras

Ataskaita buvo paskelbta 4 minutes, ne 03:56 UTC
Vėjas 13 kt iš Vakarų/Šiaurės Vakarų
Temperatūra 12°C
Drėgmė 94%
Slėgis 1006 hPa
Matomumas: 16.1 km
Su prošvaistėmis ne aukštis 1200 ft
Su prošvaistėmis ne aukštis 1700 ft
Apsiniaukę ne aukštis 11000 ft

METAR: PACM 160356Z AUTO 29013KT 10SM BKN012 BKN017 OVC110 12/11 A2972 RMK AO2 SLP060 T01170111

Laikas: 20:00 (04:00 UTC)


TAF: trūkstamas

Orai ataskaitas ir orų prognozės (METAR, TAF).

turimą stotys yra geltonos ir raudonos taškus žemėlapyje.

Perkelti pele per norėdami pamatyti stoties vardą.

Tada spustelėkite, norėdami matyti oro stebėjimo ir prognozės.

Norėdami pakeisti žemėlapį: spustelėkite ant žalios mygtukų su juodo kryžiaus žemyn,; žalią mygtuką su brūkšneliu, jei norite nutolinti; arba žalių rodyklių gretimoms žemėlapius.


METAR-TAF: